sensor_id;sensor_type;location;lat;lon;timestamp;temperature;humidity
51567;DHT22;37657;53.182;5.638;2023-05-09T00:01:11;13.90;99.90
51567;DHT22;37657;53.182;5.638;2023-05-09T00:03:37;13.90;99.90
51567;DHT22;37657;53.182;5.638;2023-05-09T00:06:03;14.00;99.90
51567;DHT22;37657;53.182;5.638;2023-05-09T00:08:29;13.80;99.90
51567;DHT22;37657;53.182;5.638;2023-05-09T00:10:55;14.00;99.90
51567;DHT22;37657;53.182;5.638;2023-05-09T00:13:20;13.80;99.90
51567;DHT22;37657;53.182;5.638;2023-05-09T00:15:48;13.90;99.90
51567;DHT22;37657;53.182;5.638;2023-05-09T00:18:13;13.80;99.90
51567;DHT22;37657;53.182;5.638;2023-05-09T00:20:39;13.90;99.90
51567;DHT22;37657;53.182;5.638;2023-05-09T00:23:08;13.70;99.90
51567;DHT22;37657;53.182;5.638;2023-05-09T00:25:34;13.70;99.90
51567;DHT22;37657;53.182;5.638;2023-05-09T00:27:59;13.80;99.90
51567;DHT22;37657;53.182;5.638;2023-05-09T00:30:25;14.00;99.90
51567;DHT22;37657;53.182;5.638;2023-05-09T00:32:51;13.80;99.90
51567;DHT22;37657;53.182;5.638;2023-05-09T00:35:16;13.90;99.90
51567;DHT22;37657;53.182;5.638;2023-05-09T00:37:42;13.90;99.90
51567;DHT22;37657;53.182;5.638;2023-05-09T00:40:08;13.80;99.90
51567;DHT22;37657;53.182;5.638;2023-05-09T00:42:34;13.80;99.90
51567;DHT22;37657;53.182;5.638;2023-05-09T00:45:00;13.80;99.90
51567;DHT22;37657;53.182;5.638;2023-05-09T00:47:29;13.70;99.90
51567;DHT22;37657;53.182;5.638;2023-05-09T00:49:55;13.70;99.90
51567;DHT22;37657;53.182;5.638;2023-05-09T00:52:23;13.80;99.90
51567;DHT22;37657;53.182;5.638;2023-05-09T00:54:54;13.60;99.90
51567;DHT22;37657;53.182;5.638;2023-05-09T00:57:20;13.90;99.90
51567;DHT22;37657;53.182;5.638;2023-05-09T00:59:46;13.90;99.90
51567;DHT22;37657;53.182;5.638;2023-05-09T01:02:12;13.80;99.90
51567;DHT22;37657;53.182;5.638;2023-05-09T01:04:38;13.80;99.90
51567;DHT22;37657;53.182;5.638;2023-05-09T01:07:31;13.90;99.90
51567;DHT22;37657;53.182;5.638;2023-05-09T01:10:22;13.80;99.90
51567;DHT22;37657;53.182;5.638;2023-05-09T01:13:26;13.60;99.90
51567;DHT22;37657;53.182;5.638;2023-05-09T01:18:42;13.90;99.90
51567;DHT22;37657;53.182;5.638;2023-05-09T01:21:19;13.80;99.90
51567;DHT22;37657;53.182;5.638;2023-05-09T01:26:51;13.50;99.90
51567;DHT22;37657;53.182;5.638;2023-05-09T01:32:03;13.70;99.90
51567;DHT22;37657;53.182;5.638;2023-05-09T01:34:32;13.90;99.90
51567;DHT22;37657;53.182;5.638;2023-05-09T01:37:00;13.90;99.90
51567;DHT22;37657;53.182;5.638;2023-05-09T01:39:27;13.70;99.90
51567;DHT22;37657;53.182;5.638;2023-05-09T01:41:57;13.60;99.90
51567;DHT22;37657;53.182;5.638;2023-05-09T01:44:27;14.00;99.90
51567;DHT22;37657;53.182;5.638;2023-05-09T01:46:55;14.00;99.90
51567;DHT22;37657;53.182;5.638;2023-05-09T01:49:21;13.90;99.90
51567;DHT22;37657;53.182;5.638;2023-05-09T01:51:49;13.80;99.90
51567;DHT22;37657;53.182;5.638;2023-05-09T01:54:16;13.90;99.90
51567;DHT22;37657;53.182;5.638;2023-05-09T01:56:42;13.90;99.90
51567;DHT22;37657;53.182;5.638;2023-05-09T01:59:09;14.10;99.90
51567;DHT22;37657;53.182;5.638;2023-05-09T02:01:41;13.90;99.90
51567;DHT22;37657;53.182;5.638;2023-05-09T02:04:07;14.20;99.90
51567;DHT22;37657;53.182;5.638;2023-05-09T02:06:34;14.10;99.90
51567;DHT22;37657;53.182;5.638;2023-05-09T02:09:01;13.90;99.90
51567;DHT22;37657;53.182;5.638;2023-05-09T02:11:27;14.10;99.90
51567;DHT22;37657;53.182;5.638;2023-05-09T02:13:53;14.00;99.90
51567;DHT22;37657;53.182;5.638;2023-05-09T02:16:18;14.10;99.90
51567;DHT22;37657;53.182;5.638;2023-05-09T02:18:45;14.20;99.90
51567;DHT22;37657;53.182;5.638;2023-05-09T02:21:11;14.30;99.90
51567;DHT22;37657;53.182;5.638;2023-05-09T02:23:37;14.20;99.90
51567;DHT22;37657;53.182;5.638;2023-05-09T02:26:02;14.10;99.90
51567;DHT22;37657;53.182;5.638;2023-05-09T02:28:29;14.10;99.90
51567;DHT22;37657;53.182;5.638;2023-05-09T02:30:56;14.10;99.90
51567;DHT22;37657;53.182;5.638;2023-05-09T02:33:23;14.10;99.90
51567;DHT22;37657;53.182;5.638;2023-05-09T02:35:50;14.10;99.90
51567;DHT22;37657;53.182;5.638;2023-05-09T02:38:17;14.20;99.90
51567;DHT22;37657;53.182;5.638;2023-05-09T02:40:43;13.90;99.90
51567;DHT22;37657;53.182;5.638;2023-05-09T02:43:11;13.90;99.90
51567;DHT22;37657;53.182;5.638;2023-05-09T02:45:37;13.90;99.90
51567;DHT22;37657;53.182;5.638;2023-05-09T02:48:03;13.80;99.90
51567;DHT22;37657;53.182;5.638;2023-05-09T02:50:28;13.80;99.90
51567;DHT22;37657;53.182;5.638;2023-05-09T02:52:54;13.80;99.90
51567;DHT22;37657;53.182;5.638;2023-05-09T02:55:19;14.20;99.90
51567;DHT22;37657;53.182;5.638;2023-05-09T02:57:45;14.20;99.90
51567;DHT22;37657;53.182;5.638;2023-05-09T03:00:11;14.20;99.90
51567;DHT22;37657;53.182;5.638;2023-05-09T03:02:37;13.80;99.90
51567;DHT22;37657;53.182;5.638;2023-05-09T03:05:03;14.00;99.90
51567;DHT22;37657;53.182;5.638;2023-05-09T03:07:29;13.80;99.90
51567;DHT22;37657;53.182;5.638;2023-05-09T03:09:55;13.80;99.90
51567;DHT22;37657;53.182;5.638;2023-05-09T03:12:20;13.90;99.90
51567;DHT22;37657;53.182;5.638;2023-05-09T03:14:46;14.10;99.90
51567;DHT22;37657;53.182;5.638;2023-05-09T03:17:12;13.80;99.90
51567;DHT22;37657;53.182;5.638;2023-05-09T03:19:41;14.10;99.90
51567;DHT22;37657;53.182;5.638;2023-05-09T03:22:07;13.90;99.90
51567;DHT22;37657;53.182;5.638;2023-05-09T03:24:32;13.80;99.90
51567;DHT22;37657;53.182;5.638;2023-05-09T03:26:58;13.90;99.90
51567;DHT22;37657;53.182;5.638;2023-05-09T03:29:24;14.00;99.90
51567;DHT22;37657;53.182;5.638;2023-05-09T03:31:50;13.80;99.90
51567;DHT22;37657;53.182;5.638;2023-05-09T03:34:16;14.20;99.90
51567;DHT22;37657;53.182;5.638;2023-05-09T03:36:42;14.20;99.90
51567;DHT22;37657;53.182;5.638;2023-05-09T03:39:08;14.20;99.90
51567;DHT22;37657;53.182;5.638;2023-05-09T03:41:35;14.00;99.90
51567;DHT22;37657;53.182;5.638;2023-05-09T03:44:01;13.80;99.90
51567;DHT22;37657;53.182;5.638;2023-05-09T03:46:27;14.00;99.90
51567;DHT22;37657;53.182;5.638;2023-05-09T03:48:54;13.70;99.90
51567;DHT22;37657;53.182;5.638;2023-05-09T03:51:19;14.10;99.90
51567;DHT22;37657;53.182;5.638;2023-05-09T03:53:46;13.70;99.90
51567;DHT22;37657;53.182;5.638;2023-05-09T03:56:12;13.70;99.90
51567;DHT22;37657;53.182;5.638;2023-05-09T03:58:38;13.70;99.90
51567;DHT22;37657;53.182;5.638;2023-05-09T04:01:04;13.60;99.90
51567;DHT22;37657;53.182;5.638;2023-05-09T04:03:29;13.80;99.90
51567;DHT22;37657;53.182;5.638;2023-05-09T04:05:55;13.70;99.90
51567;DHT22;37657;53.182;5.638;2023-05-09T04:08:20;13.80;99.90
51567;DHT22;37657;53.182;5.638;2023-05-09T04:10:46;14.00;99.90
51567;DHT22;37657;53.182;5.638;2023-05-09T04:13:12;14.00;99.90
51567;DHT22;37657;53.182;5.638;2023-05-09T04:15:37;13.60;99.90
51567;DHT22;37657;53.182;5.638;2023-05-09T04:18:03;13.80;99.90
51567;DHT22;37657;53.182;5.638;2023-05-09T04:20:29;13.80;99.90
51567;DHT22;37657;53.182;5.638;2023-05-09T04:22:55;13.80;99.90
51567;DHT22;37657;53.182;5.638;2023-05-09T04:25:21;13.70;99.90
51567;DHT22;37657;53.182;5.638;2023-05-09T04:27:47;13.80;99.90
51567;DHT22;37657;53.182;5.638;2023-05-09T04:30:13;13.80;99.90
51567;DHT22;37657;53.182;5.638;2023-05-09T04:32:39;13.80;99.90
51567;DHT22;37657;53.182;5.638;2023-05-09T04:35:10;13.80;99.90
51567;DHT22;37657;53.182;5.638;2023-05-09T04:37:35;13.80;99.90
51567;DHT22;37657;53.182;5.638;2023-05-09T04:40:01;14.10;99.90
51567;DHT22;37657;53.182;5.638;2023-05-09T04:42:28;14.20;99.90
51567;DHT22;37657;53.182;5.638;2023-05-09T04:44:54;14.00;99.90
51567;DHT22;37657;53.182;5.638;2023-05-09T04:47:20;13.90;99.90
51567;DHT22;37657;53.182;5.638;2023-05-09T04:49:45;13.90;99.90
51567;DHT22;37657;53.182;5.638;2023-05-09T04:52:11;14.10;99.90
51567;DHT22;37657;53.182;5.638;2023-05-09T04:54:36;14.40;99.90
51567;DHT22;37657;53.182;5.638;2023-05-09T04:57:02;14.40;99.90
51567;DHT22;37657;53.182;5.638;2023-05-09T04:59:29;14.00;99.90
51567;DHT22;37657;53.182;5.638;2023-05-09T05:01:54;14.30;99.90
51567;DHT22;37657;53.182;5.638;2023-05-09T05:04:20;14.40;99.90
51567;DHT22;37657;53.182;5.638;2023-05-09T05:06:46;14.20;99.90
51567;DHT22;37657;53.182;5.638;2023-05-09T05:09:11;14.60;99.90
51567;DHT22;37657;53.182;5.638;2023-05-09T05:11:38;14.70;99.90
51567;DHT22;37657;53.182;5.638;2023-05-09T05:14:03;14.80;99.90
51567;DHT22;37657;53.182;5.638;2023-05-09T05:16:29;14.40;99.90
51567;DHT22;37657;53.182;5.638;2023-05-09T05:18:55;14.90;99.90
51567;DHT22;37657;53.182;5.638;2023-05-09T05:21:20;14.90;99.90
51567;DHT22;37657;53.182;5.638;2023-05-09T05:23:46;15.00;99.90
51567;DHT22;37657;53.182;5.638;2023-05-09T05:26:11;15.00;99.90
51567;DHT22;37657;53.182;5.638;2023-05-09T05:28:37;14.80;99.90
51567;DHT22;37657;53.182;5.638;2023-05-09T05:31:02;15.00;99.90
51567;DHT22;37657;53.182;5.638;2023-05-09T05:33:28;14.60;99.90
51567;DHT22;37657;53.182;5.638;2023-05-09T05:35:53;14.70;99.90
51567;DHT22;37657;53.182;5.638;2023-05-09T05:38:19;14.70;99.90
51567;DHT22;37657;53.182;5.638;2023-05-09T05:40:45;15.20;99.90
51567;DHT22;37657;53.182;5.638;2023-05-09T05:43:10;14.70;99.90
51567;DHT22;37657;53.182;5.638;2023-05-09T05:45:36;15.10;99.90
51567;DHT22;37657;53.182;5.638;2023-05-09T05:48:02;15.30;99.90
51567;DHT22;37657;53.182;5.638;2023-05-09T05:50:27;15.20;99.90
51567;DHT22;37657;53.182;5.638;2023-05-09T05:52:53;15.00;99.90
51567;DHT22;37657;53.182;5.638;2023-05-09T05:55:18;15.40;99.90
51567;DHT22;37657;53.182;5.638;2023-05-09T05:57:44;15.10;99.90
51567;DHT22;37657;53.182;5.638;2023-05-09T06:00:11;15.20;99.90
51567;DHT22;37657;53.182;5.638;2023-05-09T06:02:41;15.40;99.90
51567;DHT22;37657;53.182;5.638;2023-05-09T06:05:08;15.10;99.90
51567;DHT22;37657;53.182;5.638;2023-05-09T06:07:33;15.60;99.90
51567;DHT22;37657;53.182;5.638;2023-05-09T06:10:02;15.20;99.90
51567;DHT22;37657;53.182;5.638;2023-05-09T06:12:28;15.40;99.90
51567;DHT22;37657;53.182;5.638;2023-05-09T06:14:54;15.30;99.90
51567;DHT22;37657;53.182;5.638;2023-05-09T06:17:20;15.70;99.90
51567;DHT22;37657;53.182;5.638;2023-05-09T06:19:45;15.40;99.90
51567;DHT22;37657;53.182;5.638;2023-05-09T06:22:11;15.30;99.90
51567;DHT22;37657;53.182;5.638;2023-05-09T06:24:36;15.40;99.90
51567;DHT22;37657;53.182;5.638;2023-05-09T06:27:03;15.90;99.90
51567;DHT22;37657;53.182;5.638;2023-05-09T06:29:29;16.00;99.90
51567;DHT22;37657;53.182;5.638;2023-05-09T06:31:54;16.00;99.90
51567;DHT22;37657;53.182;5.638;2023-05-09T06:34:20;16.00;99.90
51567;DHT22;37657;53.182;5.638;2023-05-09T06:36:45;16.00;99.90
51567;DHT22;37657;53.182;5.638;2023-05-09T06:39:11;15.90;99.90
51567;DHT22;37657;53.182;5.638;2023-05-09T06:41:36;16.20;99.90
51567;DHT22;37657;53.182;5.638;2023-05-09T06:44:02;16.20;99.90
51567;DHT22;37657;53.182;5.638;2023-05-09T06:46:28;16.10;99.90
51567;DHT22;37657;53.182;5.638;2023-05-09T06:48:53;16.30;99.90
51567;DHT22;37657;53.182;5.638;2023-05-09T06:51:19;16.00;99.90
51567;DHT22;37657;53.182;5.638;2023-05-09T06:53:44;16.30;99.90
51567;DHT22;37657;53.182;5.638;2023-05-09T06:56:10;16.10;99.90
51567;DHT22;37657;53.182;5.638;2023-05-09T06:58:36;15.90;99.90
51567;DHT22;37657;53.182;5.638;2023-05-09T07:01:02;16.10;99.90
51567;DHT22;37657;53.182;5.638;2023-05-09T07:03:28;16.20;99.90
51567;DHT22;37657;53.182;5.638;2023-05-09T07:05:54;15.90;99.90
51567;DHT22;37657;53.182;5.638;2023-05-09T07:08:23;16.10;99.90
51567;DHT22;37657;53.182;5.638;2023-05-09T07:10:49;16.10;99.90
51567;DHT22;37657;53.182;5.638;2023-05-09T07:13:14;16.00;99.90
51567;DHT22;37657;53.182;5.638;2023-05-09T07:15:40;16.00;99.90
51567;DHT22;37657;53.182;5.638;2023-05-09T07:18:06;16.20;99.90
51567;DHT22;37657;53.182;5.638;2023-05-09T07:20:32;15.90;99.90
51567;DHT22;37657;53.182;5.638;2023-05-09T07:22:57;15.90;99.90
51567;DHT22;37657;53.182;5.638;2023-05-09T07:25:23;16.10;99.90
51567;DHT22;37657;53.182;5.638;2023-05-09T07:27:48;15.80;99.90
51567;DHT22;37657;53.182;5.638;2023-05-09T07:30:14;15.80;99.90
51567;DHT22;37657;53.182;5.638;2023-05-09T07:32:40;15.90;99.90
51567;DHT22;37657;53.182;5.638;2023-05-09T07:35:06;15.90;99.90
51567;DHT22;37657;53.182;5.638;2023-05-09T07:37:31;15.70;99.90
51567;DHT22;37657;53.182;5.638;2023-05-09T07:39:57;15.70;99.90
51567;DHT22;37657;53.182;5.638;2023-05-09T07:42:22;15.70;99.90
51567;DHT22;37657;53.182;5.638;2023-05-09T07:44:48;15.70;99.90
51567;DHT22;37657;53.182;5.638;2023-05-09T07:47:14;15.80;99.90
51567;DHT22;37657;53.182;5.638;2023-05-09T07:49:39;15.90;99.90
51567;DHT22;37657;53.182;5.638;2023-05-09T07:52:07;15.80;99.90
51567;DHT22;37657;53.182;5.638;2023-05-09T07:54:33;15.90;99.90
51567;DHT22;37657;53.182;5.638;2023-05-09T07:56:58;15.60;99.90
51567;DHT22;37657;53.182;5.638;2023-05-09T07:59:24;15.70;99.90
51567;DHT22;37657;53.182;5.638;2023-05-09T08:01:50;15.70;99.90
51567;DHT22;37657;53.182;5.638;2023-05-09T08:04:15;15.80;99.90
51567;DHT22;37657;53.182;5.638;2023-05-09T08:06:41;15.80;99.90
51567;DHT22;37657;53.182;5.638;2023-05-09T08:09:07;15.90;99.90
51567;DHT22;37657;53.182;5.638;2023-05-09T08:11:33;15.90;99.90
51567;DHT22;37657;53.182;5.638;2023-05-09T08:13:59;16.00;99.90
51567;DHT22;37657;53.182;5.638;2023-05-09T08:16:25;16.00;99.90
51567;DHT22;37657;53.182;5.638;2023-05-09T08:18:51;15.80;99.90
51567;DHT22;37657;53.182;5.638;2023-05-09T08:21:16;15.80;99.90
51567;DHT22;37657;53.182;5.638;2023-05-09T08:23:42;16.00;99.90
51567;DHT22;37657;53.182;5.638;2023-05-09T08:26:07;16.10;99.90
51567;DHT22;37657;53.182;5.638;2023-05-09T08:28:33;15.90;99.90
51567;DHT22;37657;53.182;5.638;2023-05-09T08:30:58;16.10;99.90
51567;DHT22;37657;53.182;5.638;2023-05-09T08:33:24;16.10;99.90
51567;DHT22;37657;53.182;5.638;2023-05-09T08:35:51;16.10;99.90
51567;DHT22;37657;53.182;5.638;2023-05-09T08:38:17;15.80;99.90
51567;DHT22;37657;53.182;5.638;2023-05-09T08:40:43;15.90;99.90
51567;DHT22;37657;53.182;5.638;2023-05-09T08:43:10;16.00;99.90
51567;DHT22;37657;53.182;5.638;2023-05-09T08:45:50;16.00;99.90
51567;DHT22;37657;53.182;5.638;2023-05-09T08:48:16;16.00;99.90
51567;DHT22;37657;53.182;5.638;2023-05-09T08:50:43;16.30;99.90
51567;DHT22;37657;53.182;5.638;2023-05-09T08:53:09;16.30;99.90
51567;DHT22;37657;53.182;5.638;2023-05-09T08:55:36;16.30;99.90
51567;DHT22;37657;53.182;5.638;2023-05-09T08:58:02;16.10;99.90
51567;DHT22;37657;53.182;5.638;2023-05-09T09:00:28;16.20;99.90
51567;DHT22;37657;53.182;5.638;2023-05-09T09:02:56;16.40;99.90
51567;DHT22;37657;53.182;5.638;2023-05-09T09:05:23;16.20;99.90
51567;DHT22;37657;53.182;5.638;2023-05-09T09:07:48;16.40;99.90
51567;DHT22;37657;53.182;5.638;2023-05-09T09:10:15;16.30;99.90
51567;DHT22;37657;53.182;5.638;2023-05-09T09:12:41;16.50;99.90
51567;DHT22;37657;53.182;5.638;2023-05-09T09:15:10;16.40;99.90
51567;DHT22;37657;53.182;5.638;2023-05-09T09:17:41;16.70;99.90
51567;DHT22;37657;53.182;5.638;2023-05-09T09:20:10;16.60;99.90
51567;DHT22;37657;53.182;5.638;2023-05-09T09:22:36;16.80;99.90
51567;DHT22;37657;53.182;5.638;2023-05-09T09:25:06;16.90;99.90
51567;DHT22;37657;53.182;5.638;2023-05-09T09:27:31;16.90;99.90
51567;DHT22;37657;53.182;5.638;2023-05-09T09:30:15;17.00;99.90
51567;DHT22;37657;53.182;5.638;2023-05-09T09:32:41;17.10;99.90
51567;DHT22;37657;53.182;5.638;2023-05-09T09:35:08;17.10;99.90
51567;DHT22;37657;53.182;5.638;2023-05-09T09:37:37;17.00;99.90
51567;DHT22;37657;53.182;5.638;2023-05-09T09:40:07;17.00;99.90
51567;DHT22;37657;53.182;5.638;2023-05-09T09:42:41;16.80;99.90
51567;DHT22;37657;53.182;5.638;2023-05-09T09:45:18;16.80;99.90
51567;DHT22;37657;53.182;5.638;2023-05-09T09:47:46;16.70;99.90
51567;DHT22;37657;53.182;5.638;2023-05-09T09:50:13;16.70;99.90
51567;DHT22;37657;53.182;5.638;2023-05-09T09:52:52;16.60;99.90
51567;DHT22;37657;53.182;5.638;2023-05-09T09:55:20;16.70;99.90
51567;DHT22;37657;53.182;5.638;2023-05-09T09:57:46;16.70;99.90
51567;DHT22;37657;53.182;5.638;2023-05-09T10:00:26;16.60;99.90
51567;DHT22;37657;53.182;5.638;2023-05-09T10:02:53;16.60;99.90
51567;DHT22;37657;53.182;5.638;2023-05-09T10:05:20;16.60;99.90
51567;DHT22;37657;53.182;5.638;2023-05-09T10:07:59;16.40;99.90
51567;DHT22;37657;53.182;5.638;2023-05-09T10:10:30;16.50;99.90
51567;DHT22;37657;53.182;5.638;2023-05-09T10:12:57;16.20;99.90
51567;DHT22;37657;53.182;5.638;2023-05-09T10:15:24;16.30;99.90
51567;DHT22;37657;53.182;5.638;2023-05-09T10:17:56;16.30;99.90
51567;DHT22;37657;53.182;5.638;2023-05-09T10:20:23;16.00;99.90
51567;DHT22;37657;53.182;5.638;2023-05-09T10:22:52;16.00;99.90
51567;DHT22;37657;53.182;5.638;2023-05-09T10:25:20;16.00;99.90
51567;DHT22;37657;53.182;5.638;2023-05-09T10:27:47;16.00;99.90
51567;DHT22;37657;53.182;5.638;2023-05-09T10:30:18;15.90;99.90
51567;DHT22;37657;53.182;5.638;2023-05-09T10:32:51;16.10;99.90
51567;DHT22;37657;53.182;5.638;2023-05-09T10:35:20;16.00;99.90
51567;DHT22;37657;53.182;5.638;2023-05-09T10:37:47;15.90;99.90
51567;DHT22;37657;53.182;5.638;2023-05-09T10:40:14;15.90;99.90
51567;DHT22;37657;53.182;5.638;2023-05-09T10:42:43;15.90;99.90
51567;DHT22;37657;53.182;5.638;2023-05-09T10:45:10;16.00;99.90
51567;DHT22;37657;53.182;5.638;2023-05-09T10:47:38;16.10;99.90
51567;DHT22;37657;53.182;5.638;2023-05-09T10:50:09;16.00;99.90
51567;DHT22;37657;53.182;5.638;2023-05-09T10:58:19;16.20;99.90
51567;DHT22;37657;53.182;5.638;2023-05-09T11:00:49;16.20;99.90
51567;DHT22;37657;53.182;5.638;2023-05-09T11:03:15;16.30;99.90
51567;DHT22;37657;53.182;5.638;2023-05-09T11:05:44;16.00;99.90
51567;DHT22;37657;53.182;5.638;2023-05-09T11:10:51;15.90;99.90
51567;DHT22;37657;53.182;5.638;2023-05-09T11:13:19;16.20;99.90
51567;DHT22;37657;53.182;5.638;2023-05-09T11:18:26;16.00;99.90
51567;DHT22;37657;53.182;5.638;2023-05-09T11:20:53;16.00;99.90
51567;DHT22;37657;53.182;5.638;2023-05-09T11:23:26;15.90;99.90
51567;DHT22;37657;53.182;5.638;2023-05-09T11:25:52;16.10;99.90
51567;DHT22;37657;53.182;5.638;2023-05-09T11:28:26;15.90;99.90
51567;DHT22;37657;53.182;5.638;2023-05-09T11:30:52;16.20;99.90
51567;DHT22;37657;53.182;5.638;2023-05-09T11:33:22;15.90;99.90
51567;DHT22;37657;53.182;5.638;2023-05-09T11:36:19;16.20;99.90
51567;DHT22;37657;53.182;5.638;2023-05-09T11:39:00;15.90;99.90
51567;DHT22;37657;53.182;5.638;2023-05-09T11:41:27;16.10;99.90
51567;DHT22;37657;53.182;5.638;2023-05-09T11:43:54;16.10;99.90
51567;DHT22;37657;53.182;5.638;2023-05-09T11:46:20;16.10;99.90
51567;DHT22;37657;53.182;5.638;2023-05-09T11:48:47;16.20;99.90
51567;DHT22;37657;53.182;5.638;2023-05-09T11:51:17;16.10;99.90
51567;DHT22;37657;53.182;5.638;2023-05-09T11:53:49;16.30;99.90
51567;DHT22;37657;53.182;5.638;2023-05-09T11:56:16;16.30;99.90
51567;DHT22;37657;53.182;5.638;2023-05-09T11:58:42;16.20;99.90
51567;DHT22;37657;53.182;5.638;2023-05-09T12:01:10;16.10;99.90
51567;DHT22;37657;53.182;5.638;2023-05-09T12:03:41;16.40;99.90
51567;DHT22;37657;53.182;5.638;2023-05-09T12:06:08;16.10;99.90
51567;DHT22;37657;53.182;5.638;2023-05-09T12:08:33;16.20;99.90
51567;DHT22;37657;53.182;5.638;2023-05-09T12:11:07;16.10;99.90
51567;DHT22;37657;53.182;5.638;2023-05-09T12:13:33;16.10;99.90
51567;DHT22;37657;53.182;5.638;2023-05-09T12:16:00;16.40;99.90
51567;DHT22;37657;53.182;5.638;2023-05-09T12:18:26;16.40;99.90
51567;DHT22;37657;53.182;5.638;2023-05-09T12:20:52;16.30;99.90
51567;DHT22;37657;53.182;5.638;2023-05-09T12:23:18;16.30;99.90
51567;DHT22;37657;53.182;5.638;2023-05-09T12:26:01;16.30;99.90
51567;DHT22;37657;53.182;5.638;2023-05-09T12:28:27;16.10;99.90
51567;DHT22;37657;53.182;5.638;2023-05-09T12:30:53;15.90;99.90
51567;DHT22;37657;53.182;5.638;2023-05-09T12:33:19;16.10;99.90
51567;DHT22;37657;53.182;5.638;2023-05-09T12:36:09;15.80;99.90
51567;DHT22;37657;53.182;5.638;2023-05-09T12:38:35;15.80;99.90
51567;DHT22;37657;53.182;5.638;2023-05-09T12:41:06;15.80;99.90
51567;DHT22;37657;53.182;5.638;2023-05-09T12:43:36;16.00;99.90
51567;DHT22;37657;53.182;5.638;2023-05-09T12:46:02;15.70;99.90
51567;DHT22;37657;53.182;5.638;2023-05-09T12:48:29;16.00;99.90
51567;DHT22;37657;53.182;5.638;2023-05-09T12:50:55;15.90;99.90
51567;DHT22;37657;53.182;5.638;2023-05-09T12:53:25;15.90;99.90
51567;DHT22;37657;53.182;5.638;2023-05-09T12:55:54;15.90;99.90
51567;DHT22;37657;53.182;5.638;2023-05-09T12:58:20;15.60;99.90
51567;DHT22;37657;53.182;5.638;2023-05-09T13:00:46;15.60;99.90
51567;DHT22;37657;53.182;5.638;2023-05-09T13:03:25;15.60;99.90
51567;DHT22;37657;53.182;5.638;2023-05-09T13:08:21;15.90;99.90
51567;DHT22;37657;53.182;5.638;2023-05-09T13:10:47;15.60;99.90
51567;DHT22;37657;53.182;5.638;2023-05-09T13:13:16;16.10;99.90
51567;DHT22;37657;53.182;5.638;2023-05-09T13:15:43;16.00;99.90
51567;DHT22;37657;53.182;5.638;2023-05-09T13:18:09;16.00;99.90
51567;DHT22;37657;53.182;5.638;2023-05-09T13:20:35;16.10;99.90
51567;DHT22;37657;53.182;5.638;2023-05-09T13:23:01;15.80;99.90
51567;DHT22;37657;53.182;5.638;2023-05-09T13:25:27;16.20;99.90
51567;DHT22;37657;53.182;5.638;2023-05-09T13:27:53;16.00;99.90
51567;DHT22;37657;53.182;5.638;2023-05-09T13:30:18;16.10;99.90
51567;DHT22;37657;53.182;5.638;2023-05-09T13:32:44;15.80;99.90
51567;DHT22;37657;53.182;5.638;2023-05-09T13:35:12;16.20;99.90
51567;DHT22;37657;53.182;5.638;2023-05-09T13:37:37;15.80;99.90
51567;DHT22;37657;53.182;5.638;2023-05-09T13:40:03;15.90;99.90
51567;DHT22;37657;53.182;5.638;2023-05-09T13:42:29;15.80;99.90
51567;DHT22;37657;53.182;5.638;2023-05-09T13:44:55;16.10;99.90
51567;DHT22;37657;53.182;5.638;2023-05-09T13:47:21;16.00;99.90
51567;DHT22;37657;53.182;5.638;2023-05-09T13:49:46;15.80;99.90
51567;DHT22;37657;53.182;5.638;2023-05-09T13:52:12;15.90;99.90
51567;DHT22;37657;53.182;5.638;2023-05-09T13:54:39;16.10;99.90
51567;DHT22;37657;53.182;5.638;2023-05-09T13:57:05;16.00;99.90
51567;DHT22;37657;53.182;5.638;2023-05-09T13:59:32;16.00;99.90
51567;DHT22;37657;53.182;5.638;2023-05-09T14:01:59;16.20;99.90
51567;DHT22;37657;53.182;5.638;2023-05-09T14:04:30;15.80;99.90
51567;DHT22;37657;53.182;5.638;2023-05-09T14:06:59;16.10;99.90
51567;DHT22;37657;53.182;5.638;2023-05-09T14:09:25;15.90;99.90
51567;DHT22;37657;53.182;5.638;2023-05-09T14:11:52;16.10;99.90
51567;DHT22;37657;53.182;5.638;2023-05-09T14:14:18;16.30;99.90
51567;DHT22;37657;53.182;5.638;2023-05-09T14:16:44;16.30;99.90
51567;DHT22;37657;53.182;5.638;2023-05-09T14:19:11;16.20;99.90
51567;DHT22;37657;53.182;5.638;2023-05-09T14:21:36;16.10;99.90
51567;DHT22;37657;53.182;5.638;2023-05-09T14:24:02;16.20;99.90
51567;DHT22;37657;53.182;5.638;2023-05-09T14:26:28;16.10;99.90
51567;DHT22;37657;53.182;5.638;2023-05-09T14:28:54;16.20;99.90
51567;DHT22;37657;53.182;5.638;2023-05-09T14:31:20;16.10;99.90
51567;DHT22;37657;53.182;5.638;2023-05-09T14:33:45;16.20;99.90
51567;DHT22;37657;53.182;5.638;2023-05-09T14:36:11;15.90;99.90
51567;DHT22;37657;53.182;5.638;2023-05-09T14:38:37;15.90;99.90
51567;DHT22;37657;53.182;5.638;2023-05-09T14:41:02;15.90;99.90
51567;DHT22;37657;53.182;5.638;2023-05-09T14:43:28;16.20;99.90
51567;DHT22;37657;53.182;5.638;2023-05-09T14:45:54;15.90;99.90
51567;DHT22;37657;53.182;5.638;2023-05-09T14:48:20;15.80;99.90
51567;DHT22;37657;53.182;5.638;2023-05-09T14:50:46;16.00;99.90
51567;DHT22;37657;53.182;5.638;2023-05-09T14:53:12;15.80;99.90
51567;DHT22;37657;53.182;5.638;2023-05-09T14:55:37;15.80;99.90
51567;DHT22;37657;53.182;5.638;2023-05-09T14:58:03;16.20;99.90
51567;DHT22;37657;53.182;5.638;2023-05-09T15:00:28;15.80;99.90
51567;DHT22;37657;53.182;5.638;2023-05-09T15:02:54;15.90;99.90
51567;DHT22;37657;53.182;5.638;2023-05-09T15:05:20;16.20;99.90
51567;DHT22;37657;53.182;5.638;2023-05-09T15:07:45;16.20;99.90
51567;DHT22;37657;53.182;5.638;2023-05-09T15:10:11;15.80;99.90
51567;DHT22;37657;53.182;5.638;2023-05-09T15:12:37;15.90;99.90
51567;DHT22;37657;53.182;5.638;2023-05-09T15:15:13;16.30;99.90
51567;DHT22;37657;53.182;5.638;2023-05-09T15:17:41;16.30;99.90
51567;DHT22;37657;53.182;5.638;2023-05-09T15:20:07;16.10;99.90
51567;DHT22;37657;53.182;5.638;2023-05-09T15:22:32;15.90;99.90
51567;DHT22;37657;53.182;5.638;2023-05-09T15:24:59;16.00;99.90
51567;DHT22;37657;53.182;5.638;2023-05-09T15:27:28;16.20;99.90
51567;DHT22;37657;53.182;5.638;2023-05-09T15:29:53;15.80;99.90
51567;DHT22;37657;53.182;5.638;2023-05-09T15:32:19;16.10;99.90
51567;DHT22;37657;53.182;5.638;2023-05-09T15:34:45;16.30;99.90
51567;DHT22;37657;53.182;5.638;2023-05-09T15:37:11;15.90;99.90
51567;DHT22;37657;53.182;5.638;2023-05-09T15:39:37;16.10;99.90
51567;DHT22;37657;53.182;5.638;2023-05-09T15:42:08;16.30;99.90
51567;DHT22;37657;53.182;5.638;2023-05-09T15:44:34;16.00;99.90
51567;DHT22;37657;53.182;5.638;2023-05-09T15:47:00;16.00;99.90
51567;DHT22;37657;53.182;5.638;2023-05-09T15:49:25;16.10;99.90
51567;DHT22;37657;53.182;5.638;2023-05-09T15:51:51;16.10;99.90